createdAt,value
2019-06-15T00:00:54.103Z,99.90
2019-06-15T00:03:42.186Z,99.90
2019-06-15T00:06:29.755Z,99.90
2019-06-15T00:09:17.473Z,99.90
2019-06-15T00:12:05.334Z,99.90
2019-06-15T00:14:53.435Z,99.90
2019-06-15T00:17:40.873Z,99.90
2019-06-15T00:20:28.648Z,99.90
2019-06-15T00:23:16.545Z,99.90
2019-06-15T00:26:04.356Z,99.90
2019-06-15T00:28:52.007Z,99.90
2019-06-15T00:31:40.031Z,99.90
2019-06-15T00:34:27.776Z,99.90
2019-06-15T00:37:15.210Z,99.90
2019-06-15T00:40:03.395Z,99.90
2019-06-15T00:42:51.656Z,99.90
2019-06-15T00:45:39.765Z,99.90
2019-06-15T00:48:27.542Z,99.90
2019-06-15T00:51:15.549Z,99.90
2019-06-15T00:54:03.461Z,99.90
2019-06-15T00:56:51.459Z,99.90
2019-06-15T00:59:39.199Z,99.90
2019-06-15T01:02:27.082Z,99.90
2019-06-15T01:05:15.987Z,99.90
2019-06-15T01:08:04.028Z,99.90
2019-06-15T01:10:51.730Z,99.90
2019-06-15T01:13:39.489Z,99.90
2019-06-15T01:16:27.635Z,99.90
2019-06-15T01:19:15.351Z,99.90
2019-06-15T01:22:03.683Z,99.90
2019-06-15T01:25:04.858Z,99.90
2019-06-15T01:27:40.587Z,99.90
2019-06-15T01:30:28.140Z,99.90
2019-06-15T01:33:15.869Z,99.90
2019-06-15T01:36:03.479Z,99.90
2019-06-15T01:38:51.309Z,99.90
2019-06-15T01:41:38.720Z,99.90
2019-06-15T01:44:26.640Z,99.90
2019-06-15T01:47:14.437Z,99.90
2019-06-15T01:50:02.081Z,99.90
2019-06-15T01:52:49.709Z,99.90
2019-06-15T01:55:37.435Z,99.90
2019-06-15T01:58:25.233Z,99.90
2019-06-15T02:01:13.311Z,99.90
2019-06-15T02:04:01.175Z,99.90
2019-06-15T02:06:49.157Z,99.90
2019-06-15T02:09:36.807Z,99.90
2019-06-15T02:12:24.878Z,99.90
2019-06-15T02:15:13.061Z,99.90
2019-06-15T02:18:01.188Z,99.90
2019-06-15T02:20:48.983Z,99.90
2019-06-15T02:23:37.179Z,99.90
2019-06-15T02:26:25.122Z,99.90
2019-06-15T02:29:12.994Z,99.90
2019-06-15T02:32:00.966Z,99.90
2019-06-15T02:34:48.427Z,99.90
2019-06-15T02:37:37.291Z,99.90
2019-06-15T02:40:25.399Z,99.90
2019-06-15T02:43:13.135Z,99.90
2019-06-15T02:46:00.784Z,99.90
2019-06-15T02:48:48.274Z,99.90
2019-06-15T02:51:36.354Z,99.90
2019-06-15T02:54:23.781Z,99.90
2019-06-15T02:57:11.631Z,99.90
2019-06-15T02:59:59.082Z,99.90
2019-06-15T03:02:47.123Z,99.90
2019-06-15T03:05:35.706Z,99.90
2019-06-15T03:08:23.577Z,99.90
2019-06-15T03:11:11.523Z,99.90
2019-06-15T03:14:00.037Z,99.90
2019-06-15T03:16:47.758Z,99.90
2019-06-15T03:19:35.859Z,99.90
2019-06-15T03:22:23.842Z,99.90
2019-06-15T03:25:12.697Z,99.90
2019-06-15T03:28:00.534Z,99.90
2019-06-15T03:30:48.106Z,99.90
2019-06-15T03:33:39.086Z,99.90
2019-06-15T03:36:27.105Z,99.90
2019-06-15T03:39:14.881Z,99.90
2019-06-15T03:42:02.676Z,99.90
2019-06-15T03:44:50.733Z,99.90
2019-06-15T03:47:38.768Z,99.90
2019-06-15T03:50:26.926Z,99.90
2019-06-15T03:53:15.075Z,99.90
2019-06-15T03:56:03.219Z,99.90
2019-06-15T03:58:51.481Z,99.90
2019-06-15T04:01:44.934Z,99.90
2019-06-15T04:04:32.828Z,99.90
2019-06-15T04:07:20.461Z,99.90
2019-06-15T04:10:08.737Z,99.90
2019-06-15T04:12:56.790Z,99.90
2019-06-15T04:15:44.914Z,99.90
2019-06-15T04:18:32.750Z,99.90
2019-06-15T04:21:20.634Z,99.90
2019-06-15T04:24:08.908Z,99.90
2019-06-15T04:26:56.455Z,99.90
2019-06-15T04:29:44.765Z,99.90
2019-06-15T04:32:32.902Z,99.90
2019-06-15T04:35:20.998Z,99.90
2019-06-15T04:38:09.111Z,99.90
2019-06-15T04:40:57.277Z,99.90
2019-06-15T04:43:44.959Z,99.90
2019-06-15T04:46:33.453Z,99.90
2019-06-15T04:49:21.450Z,99.90
2019-06-15T04:52:09.613Z,99.90
2019-06-15T04:54:57.535Z,99.90
2019-06-15T04:57:45.494Z,99.90
2019-06-15T05:00:33.456Z,99.90
2019-06-15T05:03:21.659Z,99.90
2019-06-15T05:06:09.700Z,99.90
2019-06-15T05:08:57.855Z,99.90
2019-06-15T05:11:45.420Z,99.90
2019-06-15T05:14:33.823Z,99.90
2019-06-15T05:17:21.810Z,99.90
2019-06-15T05:20:10.174Z,99.90
2019-06-15T05:22:58.445Z,99.90
2019-06-15T05:25:46.368Z,99.90
2019-06-15T05:28:34.362Z,99.90
2019-06-15T05:31:22.461Z,99.90
2019-06-15T05:34:10.729Z,99.90
2019-06-15T05:36:58.777Z,99.90
2019-06-15T05:39:46.625Z,99.90
2019-06-15T05:42:34.531Z,99.90
2019-06-15T05:45:22.652Z,99.90
2019-06-15T05:48:10.493Z,98.60
2019-06-15T05:50:58.776Z,98.60
2019-06-15T05:53:47.038Z,98.30
2019-06-15T05:56:35.114Z,97.40
2019-06-15T05:59:22.481Z,97.50
2019-06-15T06:02:10.491Z,97.80
2019-06-15T06:04:58.720Z,96.80
2019-06-15T06:07:46.934Z,97.20
2019-06-15T06:10:35.334Z,96.90
2019-06-15T06:13:23.661Z,97.40
2019-06-15T06:16:11.652Z,97.60
2019-06-15T06:18:59.698Z,98.10
2019-06-15T06:21:47.703Z,97.60
2019-06-15T06:24:35.480Z,97.00
2019-06-15T06:27:35.902Z,97.30
2019-06-15T06:30:13.292Z,97.60
2019-06-15T06:33:01.006Z,97.40
2019-06-15T06:35:48.932Z,98.10
2019-06-15T06:38:36.578Z,97.60
2019-06-15T06:41:24.528Z,98.00
2019-06-15T06:44:11.889Z,97.50
2019-06-15T06:46:59.841Z,97.10
2019-06-15T06:49:47.820Z,97.80
2019-06-15T06:52:36.214Z,97.60
2019-06-15T06:55:24.353Z,98.20
2019-06-15T06:58:12.562Z,97.70
2019-06-15T07:01:00.946Z,97.40
2019-06-15T07:03:48.582Z,97.60
2019-06-15T07:06:36.688Z,97.10
2019-06-15T07:09:24.594Z,96.80
2019-06-15T07:12:12.689Z,96.70
2019-06-15T07:15:03.908Z,95.50
2019-06-15T07:17:51.197Z,96.20
2019-06-15T07:20:39.366Z,96.10
2019-06-15T07:23:27.757Z,96.40
2019-06-15T07:26:15.503Z,95.50
2019-06-15T07:29:04.109Z,95.60
2019-06-15T07:31:51.850Z,95.40
2019-06-15T07:34:39.974Z,95.40
2019-06-15T07:37:28.049Z,95.60
2019-06-15T07:40:16.069Z,95.50
2019-06-15T07:43:04.374Z,95.40
2019-06-15T07:45:52.600Z,95.50
2019-06-15T07:48:40.722Z,95.10
2019-06-15T07:51:28.907Z,94.20
2019-06-15T07:54:16.939Z,94.00
2019-06-15T07:57:04.854Z,93.70
2019-06-15T07:59:53.018Z,93.20
2019-06-15T08:02:40.983Z,93.40
2019-06-15T08:05:29.187Z,93.10
2019-06-15T08:08:17.306Z,92.30
2019-06-15T08:11:05.250Z,92.30
2019-06-15T08:13:53.289Z,92.30
2019-06-15T08:16:41.747Z,91.90
2019-06-15T08:19:30.177Z,91.80
2019-06-15T08:22:18.312Z,91.40
2019-06-15T08:25:05.864Z,91.50
2019-06-15T08:27:53.894Z,92.30
2019-06-15T08:30:43.561Z,92.10
2019-06-15T08:33:31.786Z,91.70
2019-06-15T08:36:19.558Z,91.90
2019-06-15T08:39:07.794Z,91.10
2019-06-15T08:41:56.962Z,90.80
2019-06-15T08:44:44.898Z,91.60
2019-06-15T08:47:32.687Z,90.60
2019-06-15T08:50:20.706Z,91.00
2019-06-15T08:53:08.803Z,91.40
2019-06-15T08:55:56.642Z,91.20
2019-06-15T08:58:55.051Z,91.10
2019-06-15T09:01:33.890Z,90.90
2019-06-15T09:04:21.815Z,90.20
2019-06-15T09:07:10.263Z,91.10
2019-06-15T09:09:58.291Z,91.40
2019-06-15T09:12:46.351Z,90.60
2019-06-15T09:15:44.746Z,90.40
2019-06-15T09:18:32.566Z,90.70
2019-06-15T09:21:20.373Z,90.70
2019-06-15T09:24:08.731Z,90.70
2019-06-15T09:26:56.615Z,90.80
2019-06-15T09:29:44.365Z,90.30
2019-06-15T09:32:32.080Z,91.00
2019-06-15T09:35:20.476Z,90.10
2019-06-15T09:38:08.425Z,91.40
2019-06-15T09:40:56.179Z,90.60
2019-06-15T09:43:43.757Z,90.50
2019-06-15T09:46:31.907Z,91.30
2019-06-15T09:49:20.106Z,92.60
2019-06-15T09:52:08.518Z,91.30
2019-06-15T09:54:56.143Z,91.10
2019-06-15T09:57:44.244Z,91.80
2019-06-15T10:00:32.121Z,91.10
2019-06-15T10:03:19.526Z,90.30
2019-06-15T10:06:11.470Z,90.40
2019-06-15T10:08:57.898Z,90.20
2019-06-15T10:11:45.857Z,88.70
2019-06-15T10:14:33.954Z,90.20
2019-06-15T10:17:31.529Z,89.00
2019-06-15T10:20:20.187Z,90.00
2019-06-15T10:23:08.176Z,88.60
2019-06-15T10:25:56.045Z,88.60
2019-06-15T10:28:45.802Z,90.10
2019-06-15T10:31:44.839Z,90.10
2019-06-15T10:35:10.132Z,89.20
2019-06-15T10:38:01.074Z,87.90
2019-06-15T10:41:00.200Z,87.60
2019-06-15T10:43:40.108Z,86.70
2019-06-15T10:46:33.469Z,84.20
2019-06-15T10:52:31.422Z,86.10
2019-06-15T10:55:19.329Z,85.80
2019-06-15T10:58:07.917Z,86.40
2019-06-15T11:00:56.170Z,86.40
2019-06-15T11:03:44.161Z,89.10
2019-06-15T11:06:35.974Z,87.60
2019-06-15T11:09:23.944Z,88.40
2019-06-15T11:12:12.953Z,85.40
2019-06-15T11:15:01.164Z,85.20
2019-06-15T11:17:49.013Z,87.20
2019-06-15T11:20:36.986Z,85.90
2019-06-15T11:23:25.763Z,87.10
2019-06-15T11:26:13.460Z,86.60
2019-06-15T11:29:01.426Z,88.50
2019-06-15T11:31:49.571Z,87.50
2019-06-15T11:34:38.160Z,87.00
2019-06-15T11:37:25.967Z,88.60
2019-06-15T11:40:13.555Z,87.10
2019-06-15T11:43:01.853Z,85.40
2019-06-15T11:45:49.923Z,85.40
2019-06-15T11:48:37.453Z,85.90
2019-06-15T11:51:25.281Z,83.40
2019-06-15T11:54:13.295Z,83.60
2019-06-15T11:57:01.052Z,85.00
2019-06-15T11:59:49.109Z,83.20
2019-06-15T12:02:38.452Z,83.20
2019-06-15T12:05:26.427Z,81.90
2019-06-15T12:08:14.322Z,85.20
2019-06-15T12:11:07.573Z,84.80
2019-06-15T12:13:58.840Z,85.00
2019-06-15T12:16:50.821Z,82.60
2019-06-15T12:19:52.797Z,83.00
2019-06-15T12:22:41.602Z,84.60
2019-06-15T12:29:41.949Z,83.90
2019-06-15T12:32:30.546Z,82.40
2019-06-15T12:35:53.014Z,84.40
2019-06-15T12:38:40.967Z,82.70
2019-06-15T12:41:54.492Z,83.70
2019-06-15T12:44:39.772Z,83.30
2019-06-15T12:47:38.760Z,82.40
2019-06-15T12:50:26.812Z,84.20
2019-06-15T12:53:24.486Z,82.70
2019-06-15T12:59:20.784Z,84.90
2019-06-15T13:00:31.306Z,84.50
2019-06-15T13:02:08.723Z,84.60
2019-06-15T13:04:57.008Z,85.70
2019-06-15T13:07:45.618Z,86.40
2019-06-15T13:10:38.873Z,87.00
2019-06-15T13:13:27.037Z,86.10
2019-06-15T13:16:19.684Z,87.40
2019-06-15T13:19:07.742Z,85.80
2019-06-15T13:21:55.817Z,86.60
2019-06-15T13:24:45.229Z,86.60
2019-06-15T13:27:33.021Z,87.40
2019-06-15T13:30:21.675Z,87.00
2019-06-15T13:33:09.692Z,86.90
2019-06-15T13:35:57.964Z,88.80
2019-06-15T13:38:46.988Z,88.00
2019-06-15T13:41:34.811Z,87.50
2019-06-15T13:44:22.972Z,89.00
2019-06-15T13:47:35.764Z,88.90
2019-06-15T13:50:35.020Z,88.50
2019-06-15T13:53:26.936Z,87.80
2019-06-15T13:56:15.202Z,86.60
2019-06-15T13:59:04.051Z,89.50
2019-06-15T14:01:57.918Z,87.20
2019-06-15T14:04:45.799Z,87.70
2019-06-15T14:07:33.368Z,88.60
2019-06-15T14:10:21.175Z,87.40
2019-06-15T14:13:08.996Z,87.10
2019-06-15T14:15:57.394Z,88.20
2019-06-15T14:18:48.748Z,88.20
2019-06-15T14:21:36.414Z,90.40
2019-06-15T14:24:24.226Z,90.50
2019-06-15T14:27:11.655Z,91.70
2019-06-15T14:29:59.168Z,91.90
2019-06-15T14:32:47.090Z,92.30
2019-06-15T14:35:35.408Z,92.60
2019-06-15T14:38:23.464Z,93.20
2019-06-15T14:41:11.311Z,93.30
2019-06-15T14:44:01.173Z,93.60
2019-06-15T14:46:49.133Z,93.40
2019-06-15T14:49:37.325Z,93.80
2019-06-15T14:52:24.738Z,94.10
2019-06-15T14:55:13.083Z,94.30
2019-06-15T14:58:00.906Z,94.30
2019-06-15T15:00:49.766Z,94.40
2019-06-15T15:03:37.961Z,94.60
2019-06-15T15:06:26.195Z,94.60
2019-06-15T15:09:13.986Z,94.40
2019-06-15T15:12:01.942Z,94.50
2019-06-15T15:14:50.657Z,94.70
2019-06-15T15:17:38.522Z,94.40
2019-06-15T15:20:26.476Z,94.40
2019-06-15T15:23:14.446Z,94.40
2019-06-15T15:26:01.879Z,93.80
2019-06-15T15:28:49.974Z,94.30
2019-06-15T15:31:37.749Z,93.30
2019-06-15T15:34:26.156Z,93.70
2019-06-15T15:37:15.902Z,93.90
2019-06-15T15:40:03.338Z,93.30
2019-06-15T15:42:51.238Z,93.80
2019-06-15T15:45:38.974Z,93.80
2019-06-15T15:48:26.462Z,93.80
2019-06-15T15:51:16.987Z,93.80
2019-06-15T15:54:03.708Z,93.90
2019-06-15T15:56:51.474Z,94.30
2019-06-15T15:59:38.965Z,94.10
2019-06-15T16:02:41.764Z,94.80
2019-06-15T16:05:16.637Z,95.00
2019-06-15T16:08:06.516Z,95.00
2019-06-15T16:10:53.736Z,94.20
2019-06-15T16:13:41.518Z,94.60
2019-06-15T16:16:29.384Z,94.50
2019-06-15T16:19:17.237Z,94.50
2019-06-15T16:22:07.040Z,94.70
2019-06-15T16:24:56.539Z,94.50
2019-06-15T16:27:46.274Z,95.00
2019-06-15T16:30:56.724Z,94.50
2019-06-15T16:33:26.495Z,95.30
2019-06-15T16:36:13.878Z,95.20
2019-06-15T16:39:02.143Z,94.60
2019-06-15T16:41:50.216Z,94.70
2019-06-15T16:44:37.970Z,94.10
2019-06-15T16:47:27.402Z,94.30
2019-06-15T16:50:16.184Z,94.30
2019-06-15T16:53:04.221Z,94.30
2019-06-15T16:55:52.007Z,94.40
2019-06-15T16:58:39.451Z,94.20
2019-06-15T17:01:27.691Z,94.70
2019-06-15T17:04:16.584Z,95.50
2019-06-15T17:07:06.908Z,96.00
2019-06-15T17:09:54.014Z,95.80
2019-06-15T17:12:41.545Z,95.30
2019-06-15T17:15:29.622Z,95.40
2019-06-15T17:18:17.745Z,95.20
2019-06-15T17:21:07.013Z,95.00
2019-06-15T17:23:57.278Z,95.20
2019-06-15T17:26:46.874Z,94.80
2019-06-15T17:29:34.446Z,95.20
2019-06-15T17:32:22.203Z,95.40
2019-06-15T17:35:09.991Z,95.70
2019-06-15T17:37:57.607Z,96.40
2019-06-15T17:40:46.113Z,97.30
2019-06-15T17:43:36.334Z,97.10
2019-06-15T17:46:26.634Z,97.00
2019-06-15T17:49:13.023Z,96.50
2019-06-15T17:52:00.898Z,96.30
2019-06-15T17:54:48.741Z,95.50
2019-06-15T17:57:36.207Z,95.00
2019-06-15T18:00:28.776Z,94.50
2019-06-15T18:03:17.114Z,94.20
2019-06-15T18:06:05.067Z,94.10
2019-06-15T18:08:52.639Z,94.20
2019-06-15T18:11:40.406Z,94.40
2019-06-15T18:14:28.137Z,94.60
2019-06-15T18:17:17.240Z,94.30
2019-06-15T18:20:06.807Z,94.20
2019-06-15T18:22:56.516Z,94.40
2019-06-15T18:25:46.905Z,94.60
2019-06-15T18:28:36.134Z,95.00
2019-06-15T18:31:23.598Z,95.00
2019-06-15T18:34:13.307Z,94.80
2019-06-15T18:37:00.682Z,94.70
2019-06-15T18:39:48.200Z,94.80
2019-06-15T18:42:36.973Z,94.80
2019-06-15T18:45:25.330Z,94.80
2019-06-15T18:48:13.395Z,94.80
2019-06-15T18:51:01.316Z,95.70
2019-06-15T18:54:02.964Z,95.90
2019-06-15T18:56:50.400Z,96.10
2019-06-15T18:59:38.813Z,96.60
2019-06-15T19:02:27.035Z,96.80
2019-06-15T19:05:16.796Z,97.20
2019-06-15T19:08:06.560Z,97.60
2019-06-15T19:10:56.290Z,97.90
2019-06-15T19:13:46.598Z,98.10
2019-06-15T19:16:37.079Z,98.20
2019-06-15T19:19:26.479Z,98.60
2019-06-15T19:22:13.524Z,98.70
2019-06-15T19:25:01.210Z,99.00
2019-06-15T19:27:48.965Z,99.00
2019-06-15T19:30:37.418Z,99.20
2019-06-15T19:33:27.734Z,99.70
2019-06-15T19:36:15.756Z,99.60
2019-06-15T19:39:08.484Z,99.60
2019-06-15T19:41:56.382Z,99.80
2019-06-15T19:44:44.077Z,99.90
2019-06-15T19:47:31.930Z,99.90
2019-06-15T19:50:19.818Z,99.90
2019-06-15T19:53:07.598Z,99.90
2019-06-15T19:55:57.428Z,99.90
2019-06-15T19:58:46.143Z,99.90
2019-06-15T20:01:36.238Z,99.90
2019-06-15T20:04:23.894Z,99.90
2019-06-15T20:07:17.042Z,99.90
2019-06-15T20:10:06.720Z,99.90
2019-06-15T20:12:56.228Z,99.90
2019-06-15T20:15:46.686Z,99.90
2019-06-15T20:18:33.358Z,99.90
2019-06-15T20:21:21.126Z,99.90
2019-06-15T20:24:10.187Z,99.90
2019-06-15T20:26:58.556Z,99.90
2019-06-15T20:29:47.684Z,99.90
2019-06-15T20:32:36.905Z,99.90
2019-06-15T20:35:26.300Z,99.90
2019-06-15T20:38:16.010Z,99.90
2019-06-15T20:41:03.411Z,99.90
2019-06-15T20:43:53.488Z,99.90
2019-06-15T20:46:41.449Z,99.90
2019-06-15T20:49:29.220Z,99.90
2019-06-15T20:52:16.781Z,99.90
2019-06-15T20:55:06.589Z,99.90
2019-06-15T20:57:56.606Z,99.90
2019-06-15T21:00:43.563Z,99.90
2019-06-15T21:03:31.031Z,99.90
2019-06-15T21:06:19.044Z,99.90
2019-06-15T21:09:08.115Z,99.90
2019-06-15T21:11:55.983Z,99.90
2019-06-15T21:14:43.781Z,99.90
2019-06-15T21:17:31.185Z,99.90
2019-06-15T21:20:20.883Z,99.90
2019-06-15T21:23:08.685Z,99.90
2019-06-15T21:25:57.074Z,99.90
2019-06-15T21:28:45.026Z,99.90
2019-06-15T21:31:33.061Z,99.90
2019-06-15T21:34:20.894Z,99.90
2019-06-15T21:37:09.301Z,99.90
2019-06-15T21:39:56.979Z,99.90
2019-06-15T21:42:47.938Z,99.90
2019-06-15T21:45:36.781Z,99.90
2019-06-15T21:48:26.813Z,99.90
2019-06-15T21:51:16.577Z,99.90
2019-06-15T21:54:06.818Z,99.90
2019-06-15T21:56:56.294Z,99.90
2019-06-15T21:59:42.813Z,99.90
2019-06-15T22:02:30.445Z,99.90
2019-06-15T22:05:18.400Z,99.90
2019-06-15T22:08:06.636Z,99.90
2019-06-15T22:10:54.672Z,99.90
2019-06-15T22:13:42.465Z,99.90
2019-06-15T22:16:30.438Z,99.90
2019-06-15T22:19:18.344Z,99.90
2019-06-15T22:22:27.275Z,99.90
2019-06-15T22:25:15.951Z,99.90
2019-06-15T22:28:03.894Z,99.90
2019-06-15T22:30:51.720Z,99.90
2019-06-15T22:33:39.841Z,99.90
2019-06-15T22:36:28.602Z,99.90
2019-06-15T22:39:17.268Z,99.90
2019-06-15T22:42:06.936Z,99.90
2019-06-15T22:44:56.846Z,99.90
2019-06-15T22:47:46.623Z,99.90
2019-06-15T22:50:35.750Z,99.90
2019-06-15T22:53:23.247Z,99.90
2019-06-15T22:56:11.421Z,99.90
2019-06-15T22:58:59.761Z,99.90
2019-06-15T23:01:47.972Z,99.90
2019-06-15T23:04:37.154Z,99.90
2019-06-15T23:07:25.484Z,99.90
2019-06-15T23:10:16.665Z,99.90
2019-06-15T23:13:06.313Z,99.90
2019-06-15T23:15:56.213Z,99.90
2019-06-15T23:18:43.026Z,99.90
2019-06-15T23:21:30.475Z,99.90
2019-06-15T23:24:17.872Z,99.90
2019-06-15T23:27:06.792Z,99.90
2019-06-15T23:29:56.873Z,99.90
2019-06-15T23:32:46.641Z,99.90
2019-06-15T23:35:38.988Z,99.90
2019-06-15T23:38:26.966Z,99.90
2019-06-15T23:41:16.409Z,99.90
2019-06-15T23:44:04.171Z,99.90
2019-06-15T23:46:52.015Z,99.90
2019-06-15T23:49:39.878Z,99.90
2019-06-15T23:52:27.622Z,99.90
2019-06-15T23:55:15.460Z,99.90
2019-06-15T23:58:03.477Z,99.90
